Time;durP1;ratioP1;P1;durP2;ratioP2;P2;SDS_P1;SDS_P2;PMS_P1;PMS_P2;Temp;Humidity;BMP_temperature;BMP_pressure;BME280_temperature;BME280_humidity;BME280_pressure;Samples;Min_cycle;Max_cycle;Signal;HPM_P1;HPM_P2
2023/08/12 00:00:13;;;;;;;1999.90;999.90;;;18.30;99.90;;;;;;5086517;28;20496;-72
2023/08/12 00:02:42;;;;;;;1999.90;999.90;;;18.30;99.90;;;;;;5097792;28;20041;-72
2023/08/12 00:05:10;;;;;;;1999.90;999.90;;;18.30;99.90;;;;;;5096442;28;20415;-72
2023/08/12 00:07:36;;;;;;;1999.90;999.90;;;18.30;99.90;;;;;;5086544;28;20041;-71
2023/08/12 00:10:04;;;;;;;1999.90;999.90;;;18.30;99.90;;;;;;5066354;28;20040;-71
2023/08/12 00:12:31;;;;;;;1999.90;999.90;;;18.30;99.90;;;;;;5069813;28;20032;-71
2023/08/12 00:14:57;;;;;;;1999.90;999.90;;;18.30;99.90;;;;;;5087100;28;20438;-72
2023/08/12 00:17:22;;;;;;;1999.90;999.90;;;18.30;99.90;;;;;;5083083;28;20097;-71
2023/08/12 00:19:48;;;;;;;1999.90;999.90;;;18.30;99.90;;;;;;5098514;28;20048;-72
2023/08/12 00:22:13;;;;;;;1999.90;999.90;;;18.30;99.90;;;;;;5084232;28;20088;-72
2023/08/12 00:24:40;;;;;;;1999.90;999.90;;;18.30;99.90;;;;;;5094126;28;20128;-71
2023/08/12 00:27:09;;;;;;;1999.90;999.90;;;18.30;99.90;;;;;;5086817;28;20446;-71
2023/08/12 00:29:35;;;;;;;1999.90;999.90;;;18.30;99.90;;;;;;5085934;28;20119;-72
2023/08/12 00:32:01;;;;;;;1999.90;999.90;;;18.40;99.90;;;;;;5103999;28;20454;-72
2023/08/12 00:34:27;;;;;;;1999.90;999.90;;;18.40;99.90;;;;;;5082612;28;20040;-71
2023/08/12 00:36:52;;;;;;;1999.90;999.90;;;18.40;99.90;;;;;;5086650;28;20051;-71
2023/08/12 00:39:18;;;;;;;1999.90;999.90;;;18.30;99.90;;;;;;5067053;28;20085;-71
2023/08/12 00:41:44;;;;;;;1999.90;999.90;;;18.30;99.90;;;;;;5087500;28;20069;-72
2023/08/12 00:44:10;;;;;;;1999.90;999.90;;;18.30;99.90;;;;;;5100989;28;20151;-72
2023/08/12 00:46:37;;;;;;;1999.90;999.90;;;18.30;99.90;;;;;;5087689;28;20047;-71
2023/08/12 00:49:04;;;;;;;1999.90;999.90;;;18.30;99.90;;;;;;5065403;28;20053;-72
2023/08/12 00:51:30;;;;;;;1999.90;999.90;;;18.30;99.90;;;;;;5103164;28;20404;-71
2023/08/12 00:53:57;;;;;;;1999.90;999.90;;;18.30;99.90;;;;;;5080340;28;20032;-72
2023/08/12 00:56:23;;;;;;;1999.90;999.90;;;18.30;99.90;;;;;;5101471;28;20040;-72
2023/08/12 00:58:49;;;;;;;1999.90;999.90;;;18.20;99.90;;;;;;5083221;28;20040;-72
2023/08/12 01:01:15;;;;;;;1999.90;999.90;;;18.20;99.90;;;;;;5087871;28;20107;-71
2023/08/12 01:03:41;;;;;;;1999.90;999.90;;;18.20;99.90;;;;;;5064245;28;20040;-70
2023/08/12 01:06:07;;;;;;;1999.90;999.90;;;18.20;99.90;;;;;;5086248;28;20475;-71
2023/08/12 01:08:34;;;;;;;1999.90;999.90;;;18.20;99.90;;;;;;5106393;28;20040;-71
2023/08/12 01:11:12;;;;;;;1999.90;999.90;;;18.20;99.90;;;;;;5088206;28;20412;-71
2023/08/12 01:13:44;;;;;;;1999.90;999.90;;;18.20;99.90;;;;;;5089799;28;20131;-71
2023/08/12 01:16:13;;;;;;;1999.90;999.90;;;18.20;99.90;;;;;;5103501;28;20460;-72
2023/08/12 01:18:40;;;;;;;1999.90;999.90;;;18.20;99.90;;;;;;5082421;28;20037;-72
2023/08/12 01:21:12;;;;;;;1999.90;999.90;;;18.20;99.90;;;;;;5083859;28;20052;-72
2023/08/12 01:23:38;;;;;;;1999.90;999.90;;;18.20;99.90;;;;;;5082525;28;20054;-72
2023/08/12 01:26:04;;;;;;;1999.90;999.90;;;18.20;99.90;;;;;;5091260;28;20051;-72
2023/08/12 01:28:30;;;;;;;1999.90;999.90;;;18.20;99.90;;;;;;5091057;28;20036;-72
2023/08/12 01:31:12;;;;;;;1999.90;999.90;;;18.20;99.90;;;;;;5053578;28;20079;-72
2023/08/12 01:34:18;;;;;;;1999.90;999.90;;;18.20;99.90;;;;;;5089548;28;20135;-72
2023/08/12 01:36:49;;;;;;;1999.90;999.90;;;18.20;99.90;;;;;;5083159;28;20048;-73
2023/08/12 01:39:18;;;;;;;1999.90;999.90;;;18.10;99.90;;;;;;5085541;28;20138;-72
2023/08/12 01:41:44;;;;;;;1999.90;999.90;;;18.10;99.90;;;;;;5087185;28;20093;-72
2023/08/12 01:44:09;;;;;;;1999.90;999.90;;;18.10;99.90;;;;;;5084729;28;20044;-72
2023/08/12 01:46:36;;;;;;;1999.90;999.90;;;18.10;99.90;;;;;;5104369;28;20051;-72
2023/08/12 01:49:01;;;;;;;1999.90;999.90;;;18.00;99.90;;;;;;5088737;28;20059;-72
2023/08/12 01:51:29;;;;;;;1999.90;999.90;;;18.00;99.90;;;;;;5092714;28;20404;-71
2023/08/12 01:53:54;;;;;;;1999.90;999.90;;;17.90;99.90;;;;;;5086535;28;20075;-71
2023/08/12 01:56:20;;;;;;;1999.90;999.90;;;17.80;99.90;;;;;;5088311;28;20074;-72
2023/08/12 01:58:46;;;;;;;1999.90;999.90;;;17.80;99.90;;;;;;5088598;28;20039;-71
2023/08/12 02:01:11;;;;;;;1999.90;999.90;;;17.70;99.90;;;;;;5065850;28;20044;-71
2023/08/12 02:03:38;;;;;;;1999.90;999.90;;;17.70;99.90;;;;;;5059791;28;20508;-72
2023/08/12 02:06:04;;;;;;;1999.90;999.90;;;17.60;99.90;;;;;;5068534;28;20091;-71
2023/08/12 02:08:29;;;;;;;1999.90;999.90;;;17.60;99.90;;;;;;5089127;28;20087;-72
2023/08/12 02:10:55;;;;;;;1999.90;999.90;;;17.60;99.90;;;;;;5079445;28;20047;-71
2023/08/12 02:13:20;;;;;;;1999.90;999.90;;;17.50;99.90;;;;;;5083198;28;20082;-72
2023/08/12 02:15:46;;;;;;;1999.90;999.90;;;17.50;99.90;;;;;;5105310;28;20067;-71
2023/08/12 02:18:12;;;;;;;1999.90;999.90;;;17.50;99.90;;;;;;5074178;28;20047;-73
2023/08/12 02:20:37;;;;;;;1999.90;999.90;;;17.50;99.90;;;;;;5095417;28;20093;-72
2023/08/12 02:23:03;;;;;;;1999.90;999.90;;;17.50;99.90;;;;;;5071448;28;20052;-72
2023/08/12 02:25:29;;;;;;;1999.90;999.90;;;17.50;99.90;;;;;;5084374;28;20063;-72
2023/08/12 02:27:54;;;;;;;1999.90;999.90;;;17.50;99.90;;;;;;5089848;28;20097;-73
2023/08/12 02:30:20;;;;;;;1999.90;999.90;;;17.50;99.90;;;;;;5088304;28;20285;-72
2023/08/12 02:32:46;;;;;;;1999.90;999.90;;;17.50;99.90;;;;;;5084437;28;20063;-71
2023/08/12 02:35:11;;;;;;;1999.90;999.90;;;17.60;99.90;;;;;;5100290;28;20044;-72
2023/08/12 02:37:37;;;;;;;1999.90;999.90;;;17.60;99.90;;;;;;5071247;28;20097;-71
2023/08/12 02:40:07;;;;;;;1999.90;999.90;;;17.60;99.90;;;;;;5087738;28;20059;-72
2023/08/12 02:42:33;;;;;;;1999.90;999.90;;;17.70;99.90;;;;;;5080700;28;20040;-72
2023/08/12 02:44:59;;;;;;;1999.90;999.90;;;17.70;99.90;;;;;;5087710;28;20575;-72
2023/08/12 02:47:26;;;;;;;1999.90;999.90;;;17.70;99.90;;;;;;5087571;28;20057;-72
2023/08/12 02:49:51;;;;;;;1999.90;999.90;;;17.70;99.90;;;;;;5072186;28;20082;-72
2023/08/12 02:52:17;;;;;;;1999.90;999.90;;;17.80;99.90;;;;;;5071496;28;20036;-72
2023/08/12 02:54:43;;;;;;;1999.90;999.90;;;17.80;99.90;;;;;;5087774;28;20130;-72
2023/08/12 02:57:08;;;;;;;1999.90;999.90;;;17.80;99.90;;;;;;5086737;28;20040;-73
2023/08/12 02:59:34;;;;;;;1999.90;999.90;;;17.80;99.90;;;;;;5087751;28;20040;-72
2023/08/12 03:01:59;;;;;;;1999.90;999.90;;;17.80;99.90;;;;;;5071075;28;20039;-72
2023/08/12 03:04:25;;;;;;;1999.90;999.90;;;17.80;99.90;;;;;;5069746;28;20510;-72
2023/08/12 03:06:50;;;;;;;1999.90;999.90;;;17.70;99.90;;;;;;5079184;28;20055;-72
2023/08/12 03:09:18;;;;;;;1999.90;999.90;;;17.70;99.90;;;;;;5092878;28;20044;-72
2023/08/12 03:11:43;;;;;;;1999.90;999.90;;;17.70;99.90;;;;;;5062717;28;20076;-72
2023/08/12 03:14:09;;;;;;;1999.90;999.90;;;17.60;99.90;;;;;;5078613;28;20082;-72
2023/08/12 03:16:35;;;;;;;1999.90;999.90;;;17.70;99.90;;;;;;5087088;28;20040;-71
2023/08/12 03:19:00;;;;;;;1999.90;999.90;;;17.60;99.90;;;;;;5087285;28;20044;-72
2023/08/12 03:21:26;;;;;;;1999.90;999.90;;;17.70;99.90;;;;;;5084712;28;20036;-72
2023/08/12 03:23:52;;;;;;;1999.90;999.90;;;17.70;99.90;;;;;;5069928;28;20075;-72
2023/08/12 03:26:17;;;;;;;1999.90;999.90;;;17.70;99.90;;;;;;5096836;28;20415;-72
2023/08/12 03:28:43;;;;;;;1999.90;999.90;;;17.80;99.90;;;;;;5096448;28;20074;-72
2023/08/12 03:31:09;;;;;;;1999.90;999.90;;;17.80;99.90;;;;;;5086380;28;20044;-72
2023/08/12 03:33:34;;;;;;;1999.90;999.90;;;17.80;99.90;;;;;;5088322;28;20527;-71
2023/08/12 03:36:00;;;;;;;1999.90;999.90;;;17.80;99.90;;;;;;5086945;28;20107;-72
2023/08/12 03:38:26;;;;;;;1999.90;999.90;;;17.90;99.90;;;;;;5099147;28;20060;-72
2023/08/12 03:40:51;;;;;;;1999.90;999.90;;;17.90;99.90;;;;;;5086386;28;20048;-72
2023/08/12 03:43:17;;;;;;;1999.90;999.90;;;17.90;99.90;;;;;;5088268;28;20190;-73
2023/08/12 03:45:44;;;;;;;1999.90;999.90;;;18.00;99.90;;;;;;5103970;28;20055;-72
2023/08/12 03:48:10;;;;;;;1999.90;999.90;;;18.00;99.90;;;;;;5081268;28;20032;-72
2023/08/12 03:50:39;;;;;;;1999.90;999.90;;;18.00;99.90;;;;;;5098123;28;20123;-72
2023/08/12 03:53:05;;;;;;;1999.90;999.90;;;18.00;99.90;;;;;;5069409;28;20168;-72
2023/08/12 03:55:32;;;;;;;1999.90;999.90;;;18.00;99.90;;;;;;5086641;28;20502;-72
2023/08/12 03:57:58;;;;;;;1999.90;999.90;;;18.10;99.90;;;;;;5079961;28;20036;-71
2023/08/12 04:00:24;;;;;;;1999.90;999.90;;;18.10;99.90;;;;;;5090229;28;20048;-72
2023/08/12 04:02:50;;;;;;;1999.90;999.90;;;18.10;99.90;;;;;;5069943;28;20035;-71
2023/08/12 04:05:15;;;;;;;1999.90;999.90;;;18.10;99.90;;;;;;5080197;28;20090;-72
2023/08/12 04:07:41;;;;;;;1999.90;999.90;;;18.10;99.90;;;;;;5095316;28;20044;-72
2023/08/12 04:10:07;;;;;;;1999.90;999.90;;;18.20;99.90;;;;;;5099945;28;20089;-72
2023/08/12 04:12:32;;;;;;;1999.90;999.90;;;18.20;99.90;;;;;;5088433;28;20040;-72
2023/08/12 04:14:59;;;;;;;1999.90;999.90;;;18.20;99.90;;;;;;5086156;28;20109;-72
2023/08/12 04:17:25;;;;;;;1999.90;999.90;;;18.20;99.90;;;;;;5076666;28;20079;-72
2023/08/12 04:19:51;;;;;;;1999.90;999.90;;;18.20;99.90;;;;;;5085157;28;20067;-72
2023/08/12 04:22:16;;;;;;;1999.90;999.90;;;18.30;99.90;;;;;;5085908;28;20036;-72
2023/08/12 04:24:42;;;;;;;1999.90;999.90;;;18.30;99.90;;;;;;5083220;28;20470;-72
2023/08/12 04:27:08;;;;;;;1999.90;999.90;;;18.30;99.90;;;;;;5097820;28;20130;-72
2023/08/12 04:29:34;;;;;;;1999.90;999.90;;;18.30;99.90;;;;;;5069161;28;20496;-71
2023/08/12 04:32:00;;;;;;;1999.90;999.90;;;18.40;99.90;;;;;;5085676;28;20459;-72
2023/08/12 04:34:25;;;;;;;1999.90;999.90;;;18.40;99.90;;;;;;5065907;28;20119;-72
2023/08/12 04:36:51;;;;;;;1999.90;999.90;;;18.40;99.90;;;;;;5090091;28;20032;-71
2023/08/12 04:39:17;;;;;;;1999.90;999.90;;;18.40;99.90;;;;;;5087675;28;20416;-73
2023/08/12 04:41:42;;;;;;;1999.90;999.90;;;18.40;99.90;;;;;;5097385;28;20048;-72
2023/08/12 04:44:08;;;;;;;1999.90;999.90;;;18.40;99.90;;;;;;5090282;28;20477;-72
2023/08/12 04:46:33;;;;;;;1999.90;999.90;;;18.50;99.90;;;;;;5090420;28;20047;-72
2023/08/12 04:48:59;;;;;;;1999.90;999.90;;;18.50;99.90;;;;;;5105290;28;20043;-72
2023/08/12 04:51:25;;;;;;;1999.90;999.90;;;18.50;99.90;;;;;;5089973;28;20671;-73
2023/08/12 04:53:51;;;;;;;1999.90;999.90;;;18.50;99.90;;;;;;5096826;28;20036;-72
2023/08/12 04:56:16;;;;;;;1999.90;999.90;;;18.50;99.90;;;;;;5077029;28;20050;-72
2023/08/12 04:58:42;;;;;;;1999.90;999.90;;;18.50;99.90;;;;;;5086916;28;20496;-72
2023/08/12 05:01:08;;;;;;;1999.90;999.90;;;18.50;99.90;;;;;;5100911;27;20068;-72
2023/08/12 05:03:33;;;;;;;1999.90;999.90;;;18.60;99.90;;;;;;5091539;28;20055;-72
2023/08/12 05:05:59;;;;;;;1999.90;999.90;;;18.60;99.90;;;;;;5105004;28;20047;-71
2023/08/12 05:08:25;;;;;;;1999.90;999.90;;;18.60;99.90;;;;;;5086391;28;20048;-72
2023/08/12 05:10:50;;;;;;;1999.90;999.90;;;18.60;99.90;;;;;;5075067;28;20140;-72
2023/08/12 05:13:17;;;;;;;1999.90;999.90;;;18.70;99.90;;;;;;5067432;28;20134;-72
2023/08/12 05:15:51;;;;;;;1999.90;999.90;;;18.80;99.90;;;;;;5074296;28;20075;-72
2023/08/12 05:18:17;;;;;;;1999.90;999.90;;;18.80;99.90;;;;;;5087708;28;20050;-73
2023/08/12 05:20:43;;;;;;;1999.90;999.90;;;18.90;99.90;;;;;;5088964;28;20044;-72
2023/08/12 05:23:09;;;;;;;1999.90;999.90;;;18.90;99.90;;;;;;5089383;28;20132;-72
2023/08/12 05:25:34;;;;;;;1999.90;999.90;;;19.00;99.90;;;;;;5101153;28;20101;-72
2023/08/12 05:28:00;;;;;;;1999.90;999.90;;;19.10;99.90;;;;;;5084864;28;20058;-72
2023/08/12 05:30:26;;;;;;;1999.90;999.90;;;19.20;99.90;;;;;;5106314;28;20028;-72
2023/08/12 05:32:51;;;;;;;1999.90;999.90;;;19.30;99.90;;;;;;5087984;28;20036;-72
2023/08/12 05:35:17;;;;;;;1999.90;999.90;;;19.40;99.90;;;;;;5089078;28;20036;-72
2023/08/12 05:37:43;;;;;;;1999.90;999.90;;;19.60;99.90;;;;;;5097759;28;20079;-72
2023/08/12 05:40:09;;;;;;;1999.90;999.90;;;19.60;99.90;;;;;;5082330;28;20040;-72
2023/08/12 05:42:35;;;;;;;1999.90;999.90;;;19.70;99.90;;;;;;5090522;28;20054;-72
2023/08/12 05:45:01;;;;;;;1999.90;999.90;;;19.70;99.90;;;;;;5088933;28;20404;-72
2023/08/12 05:47:27;;;;;;;1999.90;999.90;;;19.80;99.90;;;;;;5086705;28;20042;-72
2023/08/12 05:49:53;;;;;;;1999.90;999.90;;;19.80;99.90;;;;;;5089853;28;20056;-72
2023/08/12 05:52:18;;;;;;;1999.90;999.90;;;19.80;99.90;;;;;;5095203;28;20040;-73
2023/08/12 05:54:44;;;;;;;1999.90;999.90;;;19.90;99.90;;;;;;5084787;28;20397;-72
2023/08/12 05:57:10;;;;;;;1999.90;999.90;;;19.90;99.90;;;;;;5102763;28;20044;-73
2023/08/12 05:59:35;;;;;;;1999.90;999.90;;;20.00;99.90;;;;;;5088995;28;20040;-71
2023/08/12 06:02:01;;;;;;;1999.90;999.90;;;20.10;99.90;;;;;;5091810;28;20084;-73
2023/08/12 06:04:26;;;;;;;1999.90;999.90;;;20.20;99.90;;;;;;5071244;28;20042;-72
2023/08/12 06:06:52;;;;;;;1999.90;999.90;;;20.30;99.90;;;;;;5078227;28;20044;-72
2023/08/12 06:09:18;;;;;;;1999.90;999.90;;;20.30;99.90;;;;;;5103782;28;20047;-72
2023/08/12 06:11:43;;;;;;;1999.90;999.90;;;20.40;99.90;;;;;;5092879;28;20035;-72
2023/08/12 06:14:09;;;;;;;1999.90;999.90;;;20.40;99.90;;;;;;5084358;28;20075;-72
2023/08/12 06:16:35;;;;;;;1999.90;999.90;;;20.30;99.90;;;;;;5070149;28;20123;-72
2023/08/12 06:19:01;;;;;;;1999.90;999.90;;;20.40;99.90;;;;;;5100228;28;20481;-72
2023/08/12 06:21:27;;;;;;;1999.90;999.90;;;20.30;99.90;;;;;;5084694;28;20085;-72
2023/08/12 06:23:52;;;;;;;1999.90;999.90;;;20.40;99.90;;;;;;5082248;28;20044;-73
2023/08/12 06:26:18;;;;;;;1999.90;999.90;;;20.40;99.90;;;;;;5078605;28;20040;-72
2023/08/12 06:28:43;;;;;;;1999.90;999.90;;;20.40;99.90;;;;;;5087144;28;20046;-72
2023/08/12 06:31:09;;;;;;;1999.90;999.90;;;20.40;99.90;;;;;;5068869;28;20036;-71
2023/08/12 06:33:34;;;;;;;1999.90;999.90;;;20.40;99.90;;;;;;5084011;28;20089;-72
2023/08/12 06:36:00;;;;;;;1999.90;999.90;;;20.40;99.90;;;;;;5079169;28;20032;-72
2023/08/12 06:38:26;;;;;;;1999.90;999.90;;;20.40;99.90;;;;;;5085752;28;20133;-72
2023/08/12 06:40:51;;;;;;;1999.90;999.90;;;20.40;99.90;;;;;;5087120;28;20044;-72
2023/08/12 06:43:17;;;;;;;1999.90;999.90;;;20.40;99.90;;;;;;5078497;28;20569;-72
2023/08/12 06:45:43;;;;;;;1999.90;999.90;;;20.40;99.90;;;;;;5087982;28;20071;-72
2023/08/12 06:48:08;;;;;;;1999.90;999.90;;;20.30;99.90;;;;;;5086817;28;20405;-73
2023/08/12 06:50:34;;;;;;;1999.90;999.90;;;20.30;99.90;;;;;;5085314;28;20040;-72
2023/08/12 06:53:00;;;;;;;1999.90;999.90;;;20.30;99.90;;;;;;5098031;28;20117;-72
2023/08/12 06:55:25;;;;;;;1999.90;999.90;;;20.30;99.90;;;;;;5064822;28;20032;-72
2023/08/12 06:57:51;;;;;;;1999.90;999.90;;;20.30;99.90;;;;;;5072429;28;20049;-72
2023/08/12 07:00:16;;;;;;;1999.90;999.90;;;20.40;99.90;;;;;;5080702;28;20412;-72
2023/08/12 07:02:42;;;;;;;1999.90;999.90;;;20.40;99.90;;;;;;5086881;28;20044;-72
2023/08/12 07:05:08;;;;;;;1999.90;999.90;;;20.40;99.90;;;;;;5086059;28;20499;-72
2023/08/12 07:07:34;;;;;;;1999.90;999.90;;;20.50;99.90;;;;;;5086386;28;20051;-72
2023/08/12 07:10:00;;;;;;;1999.90;999.90;;;20.40;99.90;;;;;;5078722;28;20040;-72
2023/08/12 07:12:26;;;;;;;1999.90;999.90;;;20.40;99.90;;;;;;5100861;28;20415;-72
2023/08/12 07:14:52;;;;;;;1999.90;999.90;;;20.40;99.90;;;;;;5081951;28;20132;-72
2023/08/12 07:17:17;;;;;;;1999.90;999.90;;;20.40;99.90;;;;;;5067861;28;20166;-72
2023/08/12 07:19:43;;;;;;;1999.90;999.90;;;20.50;99.90;;;;;;5066952;28;20411;-73
2023/08/12 07:22:09;;;;;;;1999.90;999.90;;;20.50;99.90;;;;;;5102407;28;20052;-72
2023/08/12 07:24:35;;;;;;;1999.90;999.90;;;20.50;99.90;;;;;;5081121;28;20408;-73
2023/08/12 07:27:00;;;;;;;1999.90;999.90;;;20.60;99.90;;;;;;5084733;28;20036;-72
2023/08/12 07:29:26;;;;;;;1999.90;999.90;;;20.70;99.90;;;;;;5086226;28;20071;-73
2023/08/12 07:31:53;;;;;;;1999.90;999.90;;;20.70;99.90;;;;;;5082453;28;21180;-72
2023/08/12 07:34:18;;;;;;;1999.90;999.90;;;20.70;99.90;;;;;;5084656;28;20085;-72
2023/08/12 07:36:44;;;;;;;1999.90;999.90;;;20.70;99.90;;;;;;5081090;28;20040;-72
2023/08/12 07:39:10;;;;;;;1999.90;999.90;;;20.80;99.90;;;;;;5069963;28;20737;-72
2023/08/12 07:41:36;;;;;;;1999.90;999.90;;;20.80;99.90;;;;;;5070068;28;20104;-72
2023/08/12 07:44:01;;;;;;;1999.90;999.90;;;20.80;99.90;;;;;;5103232;28;20032;-72
2023/08/12 07:46:29;;;;;;;1999.90;999.90;;;20.70;99.90;;;;;;5084270;28;20764;-73
2023/08/12 07:48:55;;;;;;;1999.90;999.90;;;20.70;99.90;;;;;;5069876;28;20036;-72
2023/08/12 07:51:21;;;;;;;1999.90;999.90;;;20.70;99.90;;;;;;5085169;28;20040;-73
2023/08/12 07:53:46;;;;;;;1999.90;999.90;;;20.70;99.90;;;;;;5092729;28;20040;-73
2023/08/12 07:56:12;;;;;;;1999.90;999.90;;;20.70;99.90;;;;;;5094611;28;20040;-72
2023/08/12 07:58:38;;;;;;;1999.90;999.90;;;20.70;99.90;;;;;;5075938;28;20032;-72
2023/08/12 08:01:04;;;;;;;1999.90;999.90;;;20.70;99.90;;;;;;5087055;28;20039;-72
2023/08/12 08:03:30;;;;;;;1999.90;999.90;;;20.70;99.90;;;;;;5088386;28;20040;-72
2023/08/12 08:05:56;;;;;;;1999.90;999.90;;;20.70;99.90;;;;;;5069266;28;20622;-72
2023/08/12 08:08:21;;;;;;;1999.90;999.90;;;20.70;99.90;;;;;;5101781;28;20082;-72
2023/08/12 08:10:47;;;;;;;1999.90;999.90;;;20.80;99.90;;;;;;5075469;28;20519;-73
2023/08/12 08:13:13;;;;;;;1999.90;999.90;;;20.70;99.90;;;;;;5095496;28;20059;-72
2023/08/12 08:15:38;;;;;;;1999.90;999.90;;;20.80;99.90;;;;;;5085257;28;20040;-73
2023/08/12 08:18:04;;;;;;;1999.90;999.90;;;20.80;99.90;;;;;;5105847;28;20040;-72
2023/08/12 08:20:30;;;;;;;1999.90;999.90;;;20.80;99.90;;;;;;5090172;28;20044;-73
2023/08/12 08:22:56;;;;;;;1999.90;999.90;;;20.80;99.90;;;;;;5088619;28;20123;-72
2023/08/12 08:25:22;;;;;;;1999.90;999.90;;;20.90;99.90;;;;;;5102482;28;20127;-73
2023/08/12 08:27:48;;;;;;;1999.90;999.90;;;20.90;99.90;;;;;;5085214;28;20032;-73
2023/08/12 08:30:14;;;;;;;1999.90;999.90;;;20.90;99.90;;;;;;5080021;28;20046;-72
2023/08/12 08:32:40;;;;;;;1999.90;999.90;;;20.90;99.90;;;;;;5066450;28;20166;-73
2023/08/12 08:35:06;;;;;;;1999.90;999.90;;;20.90;99.90;;;;;;5052476;28;20040;-73
2023/08/12 08:37:31;;;;;;;1999.90;999.90;;;20.90;99.90;;;;;;5089754;28;20044;-73
2023/08/12 08:39:57;;;;;;;1999.90;999.90;;;20.90;99.90;;;;;;5080157;28;20070;-72
2023/08/12 08:42:24;;;;;;;1999.90;999.90;;;20.90;99.90;;;;;;5091982;28;20518;-72
2023/08/12 08:44:53;;;;;;;1999.90;999.90;;;20.80;99.90;;;;;;5082331;28;20427;-72
2023/08/12 08:47:27;;;;;;;1999.90;999.90;;;20.80;99.90;;;;;;5071233;28;20047;-71
2023/08/12 08:49:57;;;;;;;1999.90;999.90;;;20.80;99.90;;;;;;5085570;28;20089;-71
2023/08/12 08:52:25;;;;;;;1999.90;999.90;;;20.80;99.90;;;;;;5071995;28;20036;-71
2023/08/12 08:54:51;;;;;;;1999.90;999.90;;;20.70;99.90;;;;;;5075622;28;20055;-71
2023/08/12 08:57:19;;;;;;;1999.90;999.90;;;20.70;99.90;;;;;;5089086;28;20044;-71
2023/08/12 08:59:44;;;;;;;1999.90;999.90;;;20.70;99.90;;;;;;5082283;28;20458;-71
2023/08/12 09:02:17;;;;;;;1999.90;999.90;;;20.80;99.90;;;;;;5078221;28;20048;-71
2023/08/12 09:04:47;;;;;;;1999.90;999.90;;;20.80;99.90;;;;;;5080063;28;20484;-71
2023/08/12 09:07:16;;;;;;;1999.90;999.90;;;20.80;99.90;;;;;;5079438;28;20052;-71
2023/08/12 09:09:48;;;;;;;1999.90;999.90;;;20.70;99.90;;;;;;5094305;28;20131;-71
2023/08/12 09:12:16;;;;;;;1999.90;999.90;;;20.70;99.90;;;;;;5084124;28;20074;-71
2023/08/12 09:14:45;;;;;;;1999.90;999.90;;;20.70;99.90;;;;;;5092428;28;20118;-71
2023/08/12 09:17:10;;;;;;;1999.90;999.90;;;20.70;99.90;;;;;;5095783;28;20032;-71
2023/08/12 09:19:36;;;;;;;1999.90;999.90;;;20.70;99.90;;;;;;5091143;28;20502;-71
2023/08/12 09:22:05;;;;;;;1999.90;999.90;;;20.70;99.90;;;;;;5086932;28;20044;-71
2023/08/12 09:24:31;;;;;;;1999.90;999.90;;;20.70;99.90;;;;;;5088500;28;20383;-71
2023/08/12 09:26:56;;;;;;;1999.90;999.90;;;20.80;99.90;;;;;;5072399;28;20162;-71
2023/08/12 09:29:25;;;;;;;1999.90;999.90;;;20.80;99.90;;;;;;5097971;28;20041;-70
2023/08/12 09:31:52;;;;;;;1999.90;999.90;;;20.80;99.90;;;;;;5082886;28;20036;-71
2023/08/12 09:34:17;;;;;;;1999.90;999.90;;;20.80;99.90;;;;;;5087821;28;20068;-71
2023/08/12 09:36:44;;;;;;;1999.90;999.90;;;20.80;99.90;;;;;;5089264;28;20137;-71
2023/08/12 09:39:09;;;;;;;1999.90;999.90;;;20.80;99.90;;;;;;5072280;28;20754;-70
2023/08/12 09:41:35;;;;;;;1999.90;999.90;;;20.90;99.90;;;;;;5070158;28;20125;-71
2023/08/12 09:44:02;;;;;;;1999.90;999.90;;;20.90;99.90;;;;;;5086879;28;20044;-70
2023/08/12 09:46:28;;;;;;;1999.90;999.90;;;20.90;99.90;;;;;;5086976;28;20039;-70
2023/08/12 09:48:54;;;;;;;1999.90;999.90;;;20.90;99.90;;;;;;5086613;28;20496;-70
2023/08/12 09:51:22;;;;;;;1999.90;999.90;;;20.90;99.90;;;;;;5087148;28;20032;-70
2023/08/12 09:53:49;;;;;;;1999.90;999.90;;;20.90;99.90;;;;;;5083017;28;20443;-70
2023/08/12 09:56:18;;;;;;;1999.90;999.90;;;21.00;99.90;;;;;;5088281;28;20044;-71
2023/08/12 09:58:49;;;;;;;1999.90;999.90;;;20.90;99.90;;;;;;5089417;28;20040;-71
2023/08/12 10:01:19;;;;;;;1999.90;999.90;;;20.90;99.90;;;;;;5087862;28;20043;-70
2023/08/12 10:03:51;;;;;;;1999.90;999.90;;;20.90;99.90;;;;;;5089059;28;20056;-70
2023/08/12 10:06:17;;;;;;;1999.90;999.90;;;20.90;99.90;;;;;;5088406;28;20056;-70
2023/08/12 10:08:46;;;;;;;1999.90;999.90;;;20.90;99.90;;;;;;5081099;28;20058;-70
2023/08/12 10:11:12;;;;;;;1999.90;999.90;;;20.90;99.90;;;;;;5064993;28;20412;-71
2023/08/12 10:13:38;;;;;;;1999.90;999.90;;;20.80;99.90;;;;;;5087724;28;20043;-70
2023/08/12 10:16:04;;;;;;;1999.90;999.90;;;20.80;99.90;;;;;;5085157;28;20032;-71
2023/08/12 10:18:31;;;;;;;1999.90;999.90;;;20.80;99.90;;;;;;5087898;28;20149;-70
2023/08/12 10:20:59;;;;;;;1999.90;999.90;;;20.80;99.90;;;;;;5088401;28;20071;-70
2023/08/12 10:23:25;;;;;;;1999.90;999.90;;;20.70;99.90;;;;;;5088372;28;20138;-71
2023/08/12 10:25:57;;;;;;;1999.90;999.90;;;20.70;99.90;;;;;;5087654;28;20055;-71
2023/08/12 10:28:23;;;;;;;1999.90;999.90;;;20.70;99.90;;;;;;5070461;28;20522;-71
2023/08/12 10:30:49;;;;;;;1999.90;999.90;;;20.70;99.90;;;;;;5088178;28;20048;-71
2023/08/12 10:33:16;;;;;;;1999.90;999.90;;;20.80;99.90;;;;;;5090600;28;20039;-71
2023/08/12 10:35:49;;;;;;;1999.90;999.90;;;20.80;99.90;;;;;;5103615;28;20132;-72
2023/08/12 10:38:20;;;;;;;1999.90;999.90;;;20.90;99.90;;;;;;5089918;28;20040;-72
2023/08/12 10:40:46;;;;;;;1999.90;999.90;;;21.10;99.90;;;;;;5088517;28;20404;-71
2023/08/12 10:43:13;;;;;;;1999.90;999.90;;;21.20;99.90;;;;;;5087615;28;20404;-71
2023/08/12 10:45:52;;;;;;;1999.90;999.90;;;21.10;99.90;;;;;;5085424;28;20400;-72
2023/08/12 10:48:21;;;;;;;1999.90;999.90;;;21.10;99.90;;;;;;5075491;28;20044;-71
2023/08/12 10:50:55;;;;;;;1999.90;999.90;;;21.00;99.90;;;;;;5086044;28;20154;-71
2023/08/12 10:53:31;;;;;;;1999.90;999.90;;;21.00;99.90;;;;;;5086487;28;20042;-71
2023/08/12 10:56:03;;;;;;;1999.90;999.90;;;21.00;99.90;;;;;;5078760;28;20101;-71
2023/08/12 10:58:33;;;;;;;1999.90;999.90;;;21.00;99.90;;;;;;5076262;28;20036;-71
2023/08/12 11:00:59;;;;;;;1999.90;999.90;;;21.10;99.90;;;;;;5087292;28;20044;-71
2023/08/12 11:03:25;;;;;;;1999.90;999.90;;;21.10;99.90;;;;;;5097930;27;20047;-71
2023/08/12 11:05:55;;;;;;;1999.90;999.90;;;21.10;99.90;;;;;;5064295;28;20054;-71
2023/08/12 11:08:24;;;;;;;1999.90;999.90;;;21.10;99.90;;;;;;5079210;28;20063;-71
2023/08/12 11:10:50;;;;;;;1999.90;999.90;;;21.20;99.90;;;;;;5087113;28;20385;-71
2023/08/12 11:13:15;;;;;;;1999.90;999.90;;;21.20;99.90;;;;;;5084068;28;20047;-71
2023/08/12 11:15:47;;;;;;;1999.90;999.90;;;21.10;99.90;;;;;;5075468;28;20129;-70
2023/08/12 11:18:14;;;;;;;1999.90;999.90;;;21.10;99.90;;;;;;5075392;28;20067;-70
2023/08/12 11:20:40;;;;;;;1999.90;999.90;;;20.90;99.90;;;;;;5080180;28;20036;-71
2023/08/12 11:23:07;;;;;;;1999.90;999.90;;;20.80;99.90;;;;;;5084763;28;20040;-70
2023/08/12 11:25:33;;;;;;;1999.90;999.90;;;20.70;99.90;;;;;;5082236;28;20051;-71
2023/08/12 11:28:00;;;;;;;1999.90;999.90;;;20.50;99.90;;;;;;5088605;28;20115;-70
2023/08/12 11:30:26;;;;;;;1999.90;999.90;;;20.10;99.90;;;;;;5093375;28;20103;-70
2023/08/12 11:32:54;;;;;;;1999.90;999.90;;;19.70;99.90;;;;;;5070687;28;20518;-71
2023/08/12 11:35:21;;;;;;;1999.90;999.90;;;19.50;99.90;;;;;;5087729;28;20051;-73
2023/08/12 11:37:49;;;;;;;1999.90;999.90;;;19.30;99.90;;;;;;5087206;28;20121;-71
2023/08/12 11:40:17;;;;;;;1999.90;999.90;;;19.00;99.90;;;;;;5077151;28;20044;-71
2023/08/12 11:42:45;;;;;;;1999.90;999.90;;;18.80;99.90;;;;;;5088170;28;20143;-71
2023/08/12 11:45:11;;;;;;;1999.90;999.90;;;18.80;99.90;;;;;;5070473;28;20804;-71
2023/08/12 11:47:38;;;;;;;1999.90;999.90;;;18.90;99.90;;;;;;5085662;28;20463;-71
2023/08/12 11:50:04;;;;;;;1999.90;999.90;;;18.90;99.90;;;;;;5086187;28;20036;-71
2023/08/12 11:52:31;;;;;;;1999.90;999.90;;;18.90;99.90;;;;;;5086474;28;20392;-71
2023/08/12 11:54:57;;;;;;;1999.90;999.90;;;18.80;99.90;;;;;;5086682;28;21345;-72